sensor_id;sensor_type;location;lat;lon;timestamp;temperature;humidity
70851;DHT22;58475;49.662;9.636;2023-05-10T00:00:31;14.91;94.17
70851;DHT22;58475;49.662;9.636;2023-05-10T00:02:56;14.89;94.19
70851;DHT22;58475;49.662;9.636;2023-05-10T00:05:22;14.95;93.80
70851;DHT22;58475;49.662;9.636;2023-05-10T00:07:47;14.95;93.92
70851;DHT22;58475;49.662;9.636;2023-05-10T00:10:13;14.89;94.15
70851;DHT22;58475;49.662;9.636;2023-05-10T00:12:38;14.95;93.89
70851;DHT22;58475;49.662;9.636;2023-05-10T00:15:04;14.88;93.62
70851;DHT22;58475;49.662;9.636;2023-05-10T00:17:29;14.87;93.35
70851;DHT22;58475;49.662;9.636;2023-05-10T00:19:55;14.84;94.10
70851;DHT22;58475;49.662;9.636;2023-05-10T00:22:20;14.84;93.87
70851;DHT22;58475;49.662;9.636;2023-05-10T00:24:46;14.74;93.80
70851;DHT22;58475;49.662;9.636;2023-05-10T00:27:11;14.79;94.43
70851;DHT22;58475;49.662;9.636;2023-05-10T00:29:36;14.81;94.48
70851;DHT22;58475;49.662;9.636;2023-05-10T00:32:02;14.84;94.27
70851;DHT22;58475;49.662;9.636;2023-05-10T00:34:27;14.82;93.70
70851;DHT22;58475;49.662;9.636;2023-05-10T00:36:53;14.72;94.82
70851;DHT22;58475;49.662;9.636;2023-05-10T00:39:18;14.77;94.31
70851;DHT22;58475;49.662;9.636;2023-05-10T00:41:44;14.81;94.11
70851;DHT22;58475;49.662;9.636;2023-05-10T00:44:10;14.85;93.74
70851;DHT22;58475;49.662;9.636;2023-05-10T00:46:35;14.71;93.81
70851;DHT22;58475;49.662;9.636;2023-05-10T00:49:01;14.81;93.81
70851;DHT22;58475;49.662;9.636;2023-05-10T00:51:28;14.58;94.23
70851;DHT22;58475;49.662;9.636;2023-05-10T00:53:54;14.45;94.44
70851;DHT22;58475;49.662;9.636;2023-05-10T00:56:21;14.40;94.85
70851;DHT22;58475;49.662;9.636;2023-05-10T00:58:48;14.38;94.54
70851;DHT22;58475;49.662;9.636;2023-05-10T01:01:14;14.56;94.66
70851;DHT22;58475;49.662;9.636;2023-05-10T01:03:39;14.67;94.04
70851;DHT22;58475;49.662;9.636;2023-05-10T01:06:05;14.64;94.54
70851;DHT22;58475;49.662;9.636;2023-05-10T01:08:31;14.56;94.48
70851;DHT22;58475;49.662;9.636;2023-05-10T01:10:56;14.64;93.96
70851;DHT22;58475;49.662;9.636;2023-05-10T01:13:36;14.64;92.60
70851;DHT22;58475;49.662;9.636;2023-05-10T01:16:03;14.67;91.90
70851;DHT22;58475;49.662;9.636;2023-05-10T01:18:30;14.56;91.78
70851;DHT22;58475;49.662;9.636;2023-05-10T01:23:45;14.58;92.10
70851;DHT22;58475;49.662;9.636;2023-05-10T01:35:26;14.41;91.71
70851;DHT22;58475;49.662;9.636;2023-05-10T01:38:02;14.34;91.98
70851;DHT22;58475;49.662;9.636;2023-05-10T01:40:35;14.33;92.31
70851;DHT22;58475;49.662;9.636;2023-05-10T01:43:04;14.27;92.34
70851;DHT22;58475;49.662;9.636;2023-05-10T01:45:56;14.30;91.80
70851;DHT22;58475;49.662;9.636;2023-05-10T01:48:27;14.16;92.28
70851;DHT22;58475;49.662;9.636;2023-05-10T01:50:53;14.12;92.10
70851;DHT22;58475;49.662;9.636;2023-05-10T01:53:21;14.17;92.59
70851;DHT22;58475;49.662;9.636;2023-05-10T01:55:49;14.17;92.11
70851;DHT22;58475;49.662;9.636;2023-05-10T01:58:26;14.19;92.89
70851;DHT22;58475;49.662;9.636;2023-05-10T02:00:52;14.17;91.51
70851;DHT22;58475;49.662;9.636;2023-05-10T02:03:22;14.14;92.10
70851;DHT22;58475;49.662;9.636;2023-05-10T02:05:48;14.13;92.44
70851;DHT22;58475;49.662;9.636;2023-05-10T02:08:15;14.13;92.33
70851;DHT22;58475;49.662;9.636;2023-05-10T02:10:43;14.09;93.30
70851;DHT22;58475;49.662;9.636;2023-05-10T02:13:11;13.98;92.64
70851;DHT22;58475;49.662;9.636;2023-05-10T02:15:37;13.90;92.58
70851;DHT22;58475;49.662;9.636;2023-05-10T02:18:04;13.83;92.98
70851;DHT22;58475;49.662;9.636;2023-05-10T02:20:31;13.87;93.41
70851;DHT22;58475;49.662;9.636;2023-05-10T02:22:57;13.90;93.16
70851;DHT22;58475;49.662;9.636;2023-05-10T02:25:23;13.92;92.12
70851;DHT22;58475;49.662;9.636;2023-05-10T02:27:50;13.98;92.21
70851;DHT22;58475;49.662;9.636;2023-05-10T02:30:17;13.98;92.34
70851;DHT22;58475;49.662;9.636;2023-05-10T02:32:44;13.85;92.32
70851;DHT22;58475;49.662;9.636;2023-05-10T02:35:11;13.85;92.01
70851;DHT22;58475;49.662;9.636;2023-05-10T02:37:39;13.79;92.45
70851;DHT22;58475;49.662;9.636;2023-05-10T02:40:06;13.76;92.13
70851;DHT22;58475;49.662;9.636;2023-05-10T02:42:35;13.72;92.34
70851;DHT22;58475;49.662;9.636;2023-05-10T02:45:07;13.54;93.51
70851;DHT22;58475;49.662;9.636;2023-05-10T02:47:33;13.62;92.90
70851;DHT22;58475;49.662;9.636;2023-05-10T02:49:58;13.41;92.89
70851;DHT22;58475;49.662;9.636;2023-05-10T02:52:28;13.57;92.89
70851;DHT22;58475;49.662;9.636;2023-05-10T02:54:55;13.55;93.46
70851;DHT22;58475;49.662;9.636;2023-05-10T02:57:26;13.51;93.09
70851;DHT22;58475;49.662;9.636;2023-05-10T02:59:52;13.31;93.15
70851;DHT22;58475;49.662;9.636;2023-05-10T03:02:18;13.45;93.78
70851;DHT22;58475;49.662;9.636;2023-05-10T03:04:43;13.47;93.92
70851;DHT22;58475;49.662;9.636;2023-05-10T03:07:09;13.49;93.46
70851;DHT22;58475;49.662;9.636;2023-05-10T03:09:35;13.51;93.24
70851;DHT22;58475;49.662;9.636;2023-05-10T03:12:05;13.57;92.81
70851;DHT22;58475;49.662;9.636;2023-05-10T03:14:53;13.59;92.36
70851;DHT22;58475;49.662;9.636;2023-05-10T03:17:30;13.62;92.34
70851;DHT22;58475;49.662;9.636;2023-05-10T03:20:06;13.58;93.47
70851;DHT22;58475;49.662;9.636;2023-05-10T03:22:45;13.55;93.02
70851;DHT22;58475;49.662;9.636;2023-05-10T03:25:12;13.55;93.79
70851;DHT22;58475;49.662;9.636;2023-05-10T03:27:43;13.49;93.37
70851;DHT22;58475;49.662;9.636;2023-05-10T03:30:11;13.49;93.17
70851;DHT22;58475;49.662;9.636;2023-05-10T03:32:37;13.38;94.41
70851;DHT22;58475;49.662;9.636;2023-05-10T03:35:09;13.45;93.90
70851;DHT22;58475;49.662;9.636;2023-05-10T03:37:36;13.47;94.21
70851;DHT22;58475;49.662;9.636;2023-05-10T03:40:02;13.48;93.17
70851;DHT22;58475;49.662;9.636;2023-05-10T03:42:30;13.49;92.84
70851;DHT22;58475;49.662;9.636;2023-05-10T03:44:56;13.51;93.67
70851;DHT22;58475;49.662;9.636;2023-05-10T03:47:21;13.54;93.29
70851;DHT22;58475;49.662;9.636;2023-05-10T03:49:47;13.49;93.28
70851;DHT22;58475;49.662;9.636;2023-05-10T03:52:12;13.52;93.36
70851;DHT22;58475;49.662;9.636;2023-05-10T03:54:37;13.55;94.21
70851;DHT22;58475;49.662;9.636;2023-05-10T03:57:04;13.41;93.73
70851;DHT22;58475;49.662;9.636;2023-05-10T03:59:31;13.41;94.20
70851;DHT22;58475;49.662;9.636;2023-05-10T04:01:56;13.47;93.80
70851;DHT22;58475;49.662;9.636;2023-05-10T04:04:21;13.48;94.09
70851;DHT22;58475;49.662;9.636;2023-05-10T04:06:49;13.42;93.56
70851;DHT22;58475;49.662;9.636;2023-05-10T04:09:14;13.39;93.66
70851;DHT22;58475;49.662;9.636;2023-05-10T04:11:40;13.47;93.73
70851;DHT22;58475;49.662;9.636;2023-05-10T04:14:05;13.38;93.63
70851;DHT22;58475;49.662;9.636;2023-05-10T04:16:31;13.38;93.41
70851;DHT22;58475;49.662;9.636;2023-05-10T04:18:56;13.32;93.08
70851;DHT22;58475;49.662;9.636;2023-05-10T04:21:21;13.27;93.78
70851;DHT22;58475;49.662;9.636;2023-05-10T04:23:47;13.12;93.75
70851;DHT22;58475;49.662;9.636;2023-05-10T04:26:12;13.25;93.96
70851;DHT22;58475;49.662;9.636;2023-05-10T04:28:38;13.39;93.54
70851;DHT22;58475;49.662;9.636;2023-05-10T04:31:04;13.48;92.73
70851;DHT22;58475;49.662;9.636;2023-05-10T04:33:30;13.55;92.75
70851;DHT22;58475;49.662;9.636;2023-05-10T04:35:56;13.45;93.51
70851;DHT22;58475;49.662;9.636;2023-05-10T04:38:21;13.55;92.65
70851;DHT22;58475;49.662;9.636;2023-05-10T04:40:46;13.58;92.85
70851;DHT22;58475;49.662;9.636;2023-05-10T04:43:12;13.61;92.05
70851;DHT22;58475;49.662;9.636;2023-05-10T04:45:37;13.69;92.18
70851;DHT22;58475;49.662;9.636;2023-05-10T04:48:03;13.78;92.00
70851;DHT22;58475;49.662;9.636;2023-05-10T04:50:28;13.76;92.23
70851;DHT22;58475;49.662;9.636;2023-05-10T04:52:53;13.83;92.93
70851;DHT22;58475;49.662;9.636;2023-05-10T04:55:19;13.79;91.91
70851;DHT22;58475;49.662;9.636;2023-05-10T04:57:44;13.89;92.14
70851;DHT22;58475;49.662;9.636;2023-05-10T05:00:10;13.89;92.35
70851;DHT22;58475;49.662;9.636;2023-05-10T05:02:36;13.76;92.24
70851;DHT22;58475;49.662;9.636;2023-05-10T05:05:01;13.69;92.16
70851;DHT22;58475;49.662;9.636;2023-05-10T05:07:27;13.70;92.77
70851;DHT22;58475;49.662;9.636;2023-05-10T05:09:52;13.63;92.47
70851;DHT22;58475;49.662;9.636;2023-05-10T05:12:17;13.69;92.55
70851;DHT22;58475;49.662;9.636;2023-05-10T05:14:43;13.82;92.50
70851;DHT22;58475;49.662;9.636;2023-05-10T05:17:08;13.70;92.39
70851;DHT22;58475;49.662;9.636;2023-05-10T05:19:34;13.85;92.80
70851;DHT22;58475;49.662;9.636;2023-05-10T05:21:59;13.98;92.74
70851;DHT22;58475;49.662;9.636;2023-05-10T05:24:24;14.07;92.30
70851;DHT22;58475;49.662;9.636;2023-05-10T05:26:50;14.16;93.23
70851;DHT22;58475;49.662;9.636;2023-05-10T05:29:15;14.27;92.46
70851;DHT22;58475;49.662;9.636;2023-05-10T05:31:40;14.24;92.01
70851;DHT22;58475;49.662;9.636;2023-05-10T05:34:06;14.19;91.31
70851;DHT22;58475;49.662;9.636;2023-05-10T05:36:31;14.29;91.70
70851;DHT22;58475;49.662;9.636;2023-05-10T05:38:57;14.36;91.12
70851;DHT22;58475;49.662;9.636;2023-05-10T05:41:23;14.37;90.67
70851;DHT22;58475;49.662;9.636;2023-05-10T05:43:49;14.30;90.66
70851;DHT22;58475;49.662;9.636;2023-05-10T05:46:15;14.24;90.50
70851;DHT22;58475;49.662;9.636;2023-05-10T05:48:40;14.23;90.76
70851;DHT22;58475;49.662;9.636;2023-05-10T05:51:06;14.09;91.66
70851;DHT22;58475;49.662;9.636;2023-05-10T05:53:31;13.99;92.20
70851;DHT22;58475;49.662;9.636;2023-05-10T05:55:58;14.06;92.92
70851;DHT22;58475;49.662;9.636;2023-05-10T05:58:24;14.14;92.55
70851;DHT22;58475;49.662;9.636;2023-05-10T06:00:50;14.30;91.86
70851;DHT22;58475;49.662;9.636;2023-05-10T06:03:17;14.38;92.55
70851;DHT22;58475;49.662;9.636;2023-05-10T06:05:43;14.41;92.05
70851;DHT22;58475;49.662;9.636;2023-05-10T06:08:08;14.54;91.79
70851;DHT22;58475;49.662;9.636;2023-05-10T06:10:33;14.65;91.86
70851;DHT22;58475;49.662;9.636;2023-05-10T06:12:59;14.64;90.74
70851;DHT22;58475;49.662;9.636;2023-05-10T06:15:24;14.60;90.98
70851;DHT22;58475;49.662;9.636;2023-05-10T06:17:50;14.67;90.88
70851;DHT22;58475;49.662;9.636;2023-05-10T06:20:16;14.72;90.85
70851;DHT22;58475;49.662;9.636;2023-05-10T06:22:41;14.68;89.99
70851;DHT22;58475;49.662;9.636;2023-05-10T06:25:07;14.82;90.75
70851;DHT22;58475;49.662;9.636;2023-05-10T06:27:33;14.79;90.35
70851;DHT22;58475;49.662;9.636;2023-05-10T06:29:59;14.72;88.89
70851;DHT22;58475;49.662;9.636;2023-05-10T06:32:24;14.84;90.39
70851;DHT22;58475;49.662;9.636;2023-05-10T06:34:49;15.02;90.39
70851;DHT22;58475;49.662;9.636;2023-05-10T06:37:15;15.12;88.06
70851;DHT22;58475;49.662;9.636;2023-05-10T06:39:40;15.39;88.47
70851;DHT22;58475;49.662;9.636;2023-05-10T06:42:06;15.63;88.16
70851;DHT22;58475;49.662;9.636;2023-05-10T06:44:32;15.74;86.50
70851;DHT22;58475;49.662;9.636;2023-05-10T06:46:57;15.70;86.18
70851;DHT22;58475;49.662;9.636;2023-05-10T06:49:22;15.37;86.83
70851;DHT22;58475;49.662;9.636;2023-05-10T06:51:48;15.42;86.38
70851;DHT22;58475;49.662;9.636;2023-05-10T06:54:14;15.54;86.10
70851;DHT22;58475;49.662;9.636;2023-05-10T06:56:39;15.46;85.44
70851;DHT22;58475;49.662;9.636;2023-05-10T06:59:05;15.29;85.96
70851;DHT22;58475;49.662;9.636;2023-05-10T07:01:30;15.58;86.10
70851;DHT22;58475;49.662;9.636;2023-05-10T07:03:55;15.58;85.60
70851;DHT22;58475;49.662;9.636;2023-05-10T07:06:21;15.66;85.95
70851;DHT22;58475;49.662;9.636;2023-05-10T07:08:46;15.86;84.84
70851;DHT22;58475;49.662;9.636;2023-05-10T07:11:11;16.00;83.69
70851;DHT22;58475;49.662;9.636;2023-05-10T07:13:37;15.84;82.78
70851;DHT22;58475;49.662;9.636;2023-05-10T07:16:04;16.32;83.46
70851;DHT22;58475;49.662;9.636;2023-05-10T07:18:31;16.35;81.78
70851;DHT22;58475;49.662;9.636;2023-05-10T07:20:57;16.67;82.49
70851;DHT22;58475;49.662;9.636;2023-05-10T07:23:22;17.10;82.11
70851;DHT22;58475;49.662;9.636;2023-05-10T07:25:48;16.97;79.80
70851;DHT22;58475;49.662;9.636;2023-05-10T07:28:15;17.00;80.96
70851;DHT22;58475;49.662;9.636;2023-05-10T07:30:40;17.03;78.89
70851;DHT22;58475;49.662;9.636;2023-05-10T07:33:06;16.96;79.93
70851;DHT22;58475;49.662;9.636;2023-05-10T07:35:33;17.14;78.92
70851;DHT22;58475;49.662;9.636;2023-05-10T07:37:58;17.24;77.52
70851;DHT22;58475;49.662;9.636;2023-05-10T07:40:24;17.34;77.31
70851;DHT22;58475;49.662;9.636;2023-05-10T07:42:49;17.42;77.90
70851;DHT22;58475;49.662;9.636;2023-05-10T07:45:14;17.16;77.42
70851;DHT22;58475;49.662;9.636;2023-05-10T07:47:40;17.81;77.27
70851;DHT22;58475;49.662;9.636;2023-05-10T07:50:08;17.96;77.80
70851;DHT22;58475;49.662;9.636;2023-05-10T07:52:34;18.10;74.96
70851;DHT22;58475;49.662;9.636;2023-05-10T07:54:59;17.79;74.74
70851;DHT22;58475;49.662;9.636;2023-05-10T07:57:24;17.13;77.74
70851;DHT22;58475;49.662;9.636;2023-05-10T07:59:50;16.88;77.56
70851;DHT22;58475;49.662;9.636;2023-05-10T08:02:15;16.56;79.25
70851;DHT22;58475;49.662;9.636;2023-05-10T08:04:41;16.49;79.67
70851;DHT22;58475;49.662;9.636;2023-05-10T08:07:06;16.29;79.38
70851;DHT22;58475;49.662;9.636;2023-05-10T08:09:32;16.30;80.12
70851;DHT22;58475;49.662;9.636;2023-05-10T08:11:57;16.33;80.83
70851;DHT22;58475;49.662;9.636;2023-05-10T08:14:24;16.59;79.54
70851;DHT22;58475;49.662;9.636;2023-05-10T08:16:49;16.38;79.67
70851;DHT22;58475;49.662;9.636;2023-05-10T08:19:15;16.41;80.07
70851;DHT22;58475;49.662;9.636;2023-05-10T08:21:44;16.25;80.04
70851;DHT22;58475;49.662;9.636;2023-05-10T08:24:09;16.41;80.10
70851;DHT22;58475;49.662;9.636;2023-05-10T08:26:35;16.51;80.57
70851;DHT22;58475;49.662;9.636;2023-05-10T08:29:00;16.69;81.55
70851;DHT22;58475;49.662;9.636;2023-05-10T08:31:26;16.66;79.67
70851;DHT22;58475;49.662;9.636;2023-05-10T08:33:51;16.62;78.73
70851;DHT22;58475;49.662;9.636;2023-05-10T08:36:18;16.73;79.87
70851;DHT22;58475;49.662;9.636;2023-05-10T08:38:47;16.72;78.22
70851;DHT22;58475;49.662;9.636;2023-05-10T08:41:13;16.70;79.38
70851;DHT22;58475;49.662;9.636;2023-05-10T08:43:38;16.48;76.53
70851;DHT22;58475;49.662;9.636;2023-05-10T08:46:05;16.52;77.93
70851;DHT22;58475;49.662;9.636;2023-05-10T08:48:33;16.73;76.68
70851;DHT22;58475;49.662;9.636;2023-05-10T08:51:00;16.76;78.23
70851;DHT22;58475;49.662;9.636;2023-05-10T08:53:28;17.06;78.46
70851;DHT22;58475;49.662;9.636;2023-05-10T08:55:56;17.32;76.82
70851;DHT22;58475;49.662;9.636;2023-05-10T08:58:22;17.38;75.73
70851;DHT22;58475;49.662;9.636;2023-05-10T09:00:48;17.68;74.71
70851;DHT22;58475;49.662;9.636;2023-05-10T09:03:15;18.07;74.64
70851;DHT22;58475;49.662;9.636;2023-05-10T09:05:41;18.29;74.91
70851;DHT22;58475;49.662;9.636;2023-05-10T09:08:08;18.06;74.29
70851;DHT22;58475;49.662;9.636;2023-05-10T09:10:33;18.03;72.93
70851;DHT22;58475;49.662;9.636;2023-05-10T09:12:59;18.57;74.35
70851;DHT22;58475;49.662;9.636;2023-05-10T09:15:24;18.57;74.23
70851;DHT22;58475;49.662;9.636;2023-05-10T09:17:50;18.47;71.85
70851;DHT22;58475;49.662;9.636;2023-05-10T09:20:15;17.97;71.62
70851;DHT22;58475;49.662;9.636;2023-05-10T09:22:42;17.83;72.71
70851;DHT22;58475;49.662;9.636;2023-05-10T09:25:09;17.75;72.24
70851;DHT22;58475;49.662;9.636;2023-05-10T09:27:37;17.69;74.06
70851;DHT22;58475;49.662;9.636;2023-05-10T09:30:03;17.68;72.58
70851;DHT22;58475;49.662;9.636;2023-05-10T09:32:40;17.62;72.64
70851;DHT22;58475;49.662;9.636;2023-05-10T09:35:13;17.52;73.44
70851;DHT22;58475;49.662;9.636;2023-05-10T09:37:40;17.68;73.68
70851;DHT22;58475;49.662;9.636;2023-05-10T09:40:28;17.95;72.55
70851;DHT22;58475;49.662;9.636;2023-05-10T09:42:59;18.07;72.61
70851;DHT22;58475;49.662;9.636;2023-05-10T09:45:31;18.13;70.68
70851;DHT22;58475;49.662;9.636;2023-05-10T09:47:57;18.37;72.53
70851;DHT22;58475;49.662;9.636;2023-05-10T09:50:24;18.06;73.42
70851;DHT22;58475;49.662;9.636;2023-05-10T09:55:23;17.68;73.49
70851;DHT22;58475;49.662;9.636;2023-05-10T09:57:49;17.42;73.67
70851;DHT22;58475;49.662;9.636;2023-05-10T10:00:23;17.62;74.10
70851;DHT22;58475;49.662;9.636;2023-05-10T10:02:57;17.76;74.65
70851;DHT22;58475;49.662;9.636;2023-05-10T10:05:30;17.78;74.58
70851;DHT22;58475;49.662;9.636;2023-05-10T10:07:57;17.95;73.48
70851;DHT22;58475;49.662;9.636;2023-05-10T10:10:24;17.75;74.49
70851;DHT22;58475;49.662;9.636;2023-05-10T10:12:49;17.64;75.09
70851;DHT22;58475;49.662;9.636;2023-05-10T10:15:15;17.58;73.93
70851;DHT22;58475;49.662;9.636;2023-05-10T10:17:42;17.38;72.95
70851;DHT22;58475;49.662;9.636;2023-05-10T10:20:08;17.37;74.47
70851;DHT22;58475;49.662;9.636;2023-05-10T10:22:34;17.34;72.85
70851;DHT22;58475;49.662;9.636;2023-05-10T10:25:01;17.26;74.06
70851;DHT22;58475;49.662;9.636;2023-05-10T10:27:40;17.38;74.36
70851;DHT22;58475;49.662;9.636;2023-05-10T10:35:39;17.55;72.97
70851;DHT22;58475;49.662;9.636;2023-05-10T10:38:07;17.59;73.13
70851;DHT22;58475;49.662;9.636;2023-05-10T10:40:33;17.81;72.32
70851;DHT22;58475;49.662;9.636;2023-05-10T10:43:25;17.92;73.43
70851;DHT22;58475;49.662;9.636;2023-05-10T10:48:37;17.86;71.37
70851;DHT22;58475;49.662;9.636;2023-05-10T10:51:02;18.02;70.57
70851;DHT22;58475;49.662;9.636;2023-05-10T10:53:28;17.89;71.90
70851;DHT22;58475;49.662;9.636;2023-05-10T10:56:10;18.44;71.92
70851;DHT22;58475;49.662;9.636;2023-05-10T10:58:39;18.53;71.06
70851;DHT22;58475;49.662;9.636;2023-05-10T11:01:13;18.72;70.92
70851;DHT22;58475;49.662;9.636;2023-05-10T11:03:40;18.58;70.23
70851;DHT22;58475;49.662;9.636;2023-05-10T11:06:05;19.09;70.31
70851;DHT22;58475;49.662;9.636;2023-05-10T11:08:32;19.43;68.71
70851;DHT22;58475;49.662;9.636;2023-05-10T11:13:34;19.08;69.35
70851;DHT22;58475;49.662;9.636;2023-05-10T11:18:37;19.15;68.96
70851;DHT22;58475;49.662;9.636;2023-05-10T11:21:03;19.54;69.55
70851;DHT22;58475;49.662;9.636;2023-05-10T11:23:48;19.46;67.30
70851;DHT22;58475;49.662;9.636;2023-05-10T11:26:14;19.11;66.56
70851;DHT22;58475;49.662;9.636;2023-05-10T11:28:44;19.70;66.33
70851;DHT22;58475;49.662;9.636;2023-05-10T11:31:10;20.01;66.41
70851;DHT22;58475;49.662;9.636;2023-05-10T11:33:50;20.07;65.18
70851;DHT22;58475;49.662;9.636;2023-05-10T11:36:22;19.80;62.97
70851;DHT22;58475;49.662;9.636;2023-05-10T11:38:48;19.90;64.16
70851;DHT22;58475;49.662;9.636;2023-05-10T11:41:16;19.80;64.90
70851;DHT22;58475;49.662;9.636;2023-05-10T11:43:42;19.57;65.64
70851;DHT22;58475;49.662;9.636;2023-05-10T11:46:11;19.22;65.33
70851;DHT22;58475;49.662;9.636;2023-05-10T11:48:41;19.09;66.59
70851;DHT22;58475;49.662;9.636;2023-05-10T11:51:10;18.05;67.26
70851;DHT22;58475;49.662;9.636;2023-05-10T11:53:36;17.62;69.63
70851;DHT22;58475;49.662;9.636;2023-05-10T11:56:09;17.00;69.98
70851;DHT22;58475;49.662;9.636;2023-05-10T11:58:36;16.48;72.79
70851;DHT22;58475;49.662;9.636;2023-05-10T12:01:04;16.15;73.36
70851;DHT22;58475;49.662;9.636;2023-05-10T12:03:30;16.26;74.19
70851;DHT22;58475;49.662;9.636;2023-05-10T12:05:56;16.35;74.51
70851;DHT22;58475;49.662;9.636;2023-05-10T12:08:24;16.22;74.87
70851;DHT22;58475;49.662;9.636;2023-05-10T12:10:50;16.09;75.71
70851;DHT22;58475;49.662;9.636;2023-05-10T12:13:16;16.02;75.92
70851;DHT22;58475;49.662;9.636;2023-05-10T12:15:43;16.09;77.97
70851;DHT22;58475;49.662;9.636;2023-05-10T12:18:12;16.05;77.50
70851;DHT22;58475;49.662;9.636;2023-05-10T12:20:39;16.07;77.73
70851;DHT22;58475;49.662;9.636;2023-05-10T12:23:05;16.05;78.18
70851;DHT22;58475;49.662;9.636;2023-05-10T12:25:35;16.14;77.62
70851;DHT22;58475;49.662;9.636;2023-05-10T12:28:06;16.60;78.50
70851;DHT22;58475;49.662;9.636;2023-05-10T12:30:32;16.46;77.00
70851;DHT22;58475;49.662;9.636;2023-05-10T12:33:12;16.59;78.33
70851;DHT22;58475;49.662;9.636;2023-05-10T12:35:46;16.56;77.87
70851;DHT22;58475;49.662;9.636;2023-05-10T12:40:58;17.18;81.24
70851;DHT22;58475;49.662;9.636;2023-05-10T12:43:24;17.11;78.39
70851;DHT22;58475;49.662;9.636;2023-05-10T12:45:49;16.90;77.88
70851;DHT22;58475;49.662;9.636;2023-05-10T12:48:15;17.16;80.52
70851;DHT22;58475;49.662;9.636;2023-05-10T12:50:40;17.18;79.09
70851;DHT22;58475;49.662;9.636;2023-05-10T12:53:06;17.07;78.83
70851;DHT22;58475;49.662;9.636;2023-05-10T12:55:31;17.14;77.30
70851;DHT22;58475;49.662;9.636;2023-05-10T12:57:57;17.32;79.35
70851;DHT22;58475;49.662;9.636;2023-05-10T13:00:22;17.56;77.61
70851;DHT22;58475;49.662;9.636;2023-05-10T13:02:47;17.93;76.74
70851;DHT22;58475;49.662;9.636;2023-05-10T13:05:13;17.51;75.23
70851;DHT22;58475;49.662;9.636;2023-05-10T13:07:38;17.31;74.30
70851;DHT22;58475;49.662;9.636;2023-05-10T13:10:05;17.54;75.03
70851;DHT22;58475;49.662;9.636;2023-05-10T13:12:31;17.64;74.68
70851;DHT22;58475;49.662;9.636;2023-05-10T13:14:56;17.47;73.40
70851;DHT22;58475;49.662;9.636;2023-05-10T13:17:22;17.52;74.52
70851;DHT22;58475;49.662;9.636;2023-05-10T13:19:47;17.64;74.17
70851;DHT22;58475;49.662;9.636;2023-05-10T13:22:12;17.41;71.81
70851;DHT22;58475;49.662;9.636;2023-05-10T13:24:38;17.54;74.75
70851;DHT22;58475;49.662;9.636;2023-05-10T13:27:03;17.55;73.52
70851;DHT22;58475;49.662;9.636;2023-05-10T13:29:29;17.54;73.73
70851;DHT22;58475;49.662;9.636;2023-05-10T13:31:54;17.86;72.99
70851;DHT22;58475;49.662;9.636;2023-05-10T13:34:20;17.97;71.65
70851;DHT22;58475;49.662;9.636;2023-05-10T13:36:46;17.78;70.82
70851;DHT22;58475;49.662;9.636;2023-05-10T13:39:11;17.69;71.30
70851;DHT22;58475;49.662;9.636;2023-05-10T13:41:37;17.64;70.56
70851;DHT22;58475;49.662;9.636;2023-05-10T13:44:03;17.44;70.71
70851;DHT22;58475;49.662;9.636;2023-05-10T13:46:29;17.45;69.56
70851;DHT22;58475;49.662;9.636;2023-05-10T13:48:55;17.21;70.99
70851;DHT22;58475;49.662;9.636;2023-05-10T13:51:20;17.18;72.57
70851;DHT22;58475;49.662;9.636;2023-05-10T13:53:46;17.30;72.09
70851;DHT22;58475;49.662;9.636;2023-05-10T13:56:12;17.26;70.92
70851;DHT22;58475;49.662;9.636;2023-05-10T13:58:38;17.27;71.00
70851;DHT22;58475;49.662;9.636;2023-05-10T14:01:03;17.21;71.26
70851;DHT22;58475;49.662;9.636;2023-05-10T14:03:30;17.17;70.13
70851;DHT22;58475;49.662;9.636;2023-05-10T14:05:55;16.99;71.37
70851;DHT22;58475;49.662;9.636;2023-05-10T14:08:21;17.30;71.85
70851;DHT22;58475;49.662;9.636;2023-05-10T14:10:46;17.23;71.10
70851;DHT22;58475;49.662;9.636;2023-05-10T14:13:12;17.23;70.97
70851;DHT22;58475;49.662;9.636;2023-05-10T14:15:37;17.31;71.83
70851;DHT22;58475;49.662;9.636;2023-05-10T14:18:03;17.32;71.24
70851;DHT22;58475;49.662;9.636;2023-05-10T14:20:28;17.41;71.42
70851;DHT22;58475;49.662;9.636;2023-05-10T14:22:54;17.21;71.37
70851;DHT22;58475;49.662;9.636;2023-05-10T14:25:19;17.32;71.79
70851;DHT22;58475;49.662;9.636;2023-05-10T14:27:45;17.23;71.64
70851;DHT22;58475;49.662;9.636;2023-05-10T14:30:11;17.49;70.93
70851;DHT22;58475;49.662;9.636;2023-05-10T14:32:36;17.47;72.80
70851;DHT22;58475;49.662;9.636;2023-05-10T14:35:02;17.34;71.27
70851;DHT22;58475;49.662;9.636;2023-05-10T14:37:28;17.44;71.37
70851;DHT22;58475;49.662;9.636;2023-05-10T14:39:56;17.64;71.50
70851;DHT22;58475;49.662;9.636;2023-05-10T14:42:21;17.85;71.30
70851;DHT22;58475;49.662;9.636;2023-05-10T14:44:47;17.92;69.36
70851;DHT22;58475;49.662;9.636;2023-05-10T14:47:12;17.69;70.87
70851;DHT22;58475;49.662;9.636;2023-05-10T14:49:37;17.79;70.42
70851;DHT22;58475;49.662;9.636;2023-05-10T14:52:03;18.12;70.30
70851;DHT22;58475;49.662;9.636;2023-05-10T14:54:28;18.02;69.30
70851;DHT22;58475;49.662;9.636;2023-05-10T14:56:53;17.89;69.50
70851;DHT22;58475;49.662;9.636;2023-05-10T14:59:20;17.86;69.90
70851;DHT22;58475;49.662;9.636;2023-05-10T15:01:45;17.87;68.73
70851;DHT22;58475;49.662;9.636;2023-05-10T15:04:11;17.68;68.56
70851;DHT22;58475;49.662;9.636;2023-05-10T15:06:38;17.79;67.43
70851;DHT22;58475;49.662;9.636;2023-05-10T15:09:03;17.83;68.92
70851;DHT22;58475;49.662;9.636;2023-05-10T15:11:29;17.89;68.40
70851;DHT22;58475;49.662;9.636;2023-05-10T15:13:54;17.68;68.57
70851;DHT22;58475;49.662;9.636;2023-05-10T15:16:20;17.82;69.90
70851;DHT22;58475;49.662;9.636;2023-05-10T15:18:48;17.89;68.89
70851;DHT22;58475;49.662;9.636;2023-05-10T15:21:14;17.92;67.41
70851;DHT22;58475;49.662;9.636;2023-05-10T15:23:39;18.20;68.70
70851;DHT22;58475;49.662;9.636;2023-05-10T15:26:04;17.97;67.38
70851;DHT22;58475;49.662;9.636;2023-05-10T15:28:30;17.92;67.90
70851;DHT22;58475;49.662;9.636;2023-05-10T15:30:55;17.90;67.88
70851;DHT22;58475;49.662;9.636;2023-05-10T15:33:21;17.89;67.75
70851;DHT22;58475;49.662;9.636;2023-05-10T15:35:47;17.78;68.54
70851;DHT22;58475;49.662;9.636;2023-05-10T15:38:13;17.75;67.83
70851;DHT22;58475;49.662;9.636;2023-05-10T15:40:38;17.62;69.15
70851;DHT22;58475;49.662;9.636;2023-05-10T15:43:03;17.45;70.09
70851;DHT22;58475;49.662;9.636;2023-05-10T15:45:30;17.37;70.32
70851;DHT22;58475;49.662;9.636;2023-05-10T15:47:56;17.16;69.07
70851;DHT22;58475;49.662;9.636;2023-05-10T15:50:21;17.10;69.75
70851;DHT22;58475;49.662;9.636;2023-05-10T15:52:47;17.00;70.33
70851;DHT22;58475;49.662;9.636;2023-05-10T15:55:12;16.80;70.22
70851;DHT22;58475;49.662;9.636;2023-05-10T15:57:41;16.79;71.00